• Join FlightAware (Why Join?)
  • Login
  • US Flag 
11:58PM EDT


 

Airport Tracker/Info


-or-


 

Live Flight TrackerFlight Track Log ✈ VH-LBB ✈ 14-Jun-2013 ✈ YCIN / DCN - YELI

Flight Track Log - Related Links

Times and Time Zones

All times are in EDT time to prevent confusion due to time zone crossing. See the VH-LBB flight status page for this flight to view local times or setup timezone preferences in your user account.

Time Position Orientation Groundspeed Altitude Reporting Facility
EDT Latitude Longitude Course Direction KTS MPH feet Rate Location/Type
09:15PM -17.5874 123.9136 360° North  Level Aus ATC (Calculated)
09:16PM -17.5874 123.9136 89° East  Level Aus ATC (Calculated)
09:18PM -17.5861 123.9671 89° East  Level FlightAware Approximate
09:19PM -17.5853 124.0036 89° East  Level FlightAware Approximate
09:19PM -17.5845 124.0367 89° East  Level Aus ATC (Calculated)
09:20PM -17.5844 124.0401 89° East  Level FlightAware Approximate
09:20PM -17.5831 124.0983 89° East  Level Aus ATC (Calculated)
09:22PM -17.5819 124.1446 89° East  Level FlightAware Approximate
09:23PM -17.5811 124.1811 89° East  Level FlightAware Approximate
09:24PM -17.5802 124.2176 89° East  Level FlightAware Approximate
09:25PM -17.5793 124.2541 89° East  Level FlightAware Approximate
09:26PM -17.5784 124.2906 89° East  Level FlightAware Approximate
09:26PM -17.5770 124.3446 268° West  Level Aus ATC (Calculated)
09:27PM -17.5774 124.3271 89° East  Level FlightAware Approximate
09:28PM -17.5757 124.3969 88° East  Level FlightAware Approximate
09:29PM -17.5748 124.4334 88° East  Level FlightAware Approximate
09:30PM -17.5738 124.4699 88° East  Level FlightAware Approximate
09:31PM -17.5729 124.5064 88° East  Level FlightAware Approximate
09:32PM -17.5719 124.5430 88° East  Level FlightAware Approximate
09:33PM -17.5710 124.5795 88° East  Level FlightAware Approximate
09:34PM -17.5700 124.6159 88° East  Level FlightAware Approximate
09:35PM -17.5690 124.6524 88° East  Level FlightAware Approximate
09:36PM -17.5680 124.6889 88° East  Level FlightAware Approximate
09:36PM -17.5657 124.7756 88° East  Level Aus ATC (Calculated)
09:37PM -17.5647 124.8121 88° East  Level FlightAware Approximate
09:38PM -17.5629 124.8356 88° East  Level Estimated
09:39PM -17.5629 124.8356 126° Southeast  Level Estimated
09:40PM -17.5629 124.8356 126° Southeast  Level Estimated
09:41PM -17.5629 124.8356 126° Southeast  Level Estimated
09:42PM -17.5629 124.8356 126° Southeast  Level Estimated
09:43PM -17.5629 124.8356 126° Southeast  Level Estimated